createdAt,value
2019-01-08T00:01:47.244Z,4.30
2019-01-08T00:04:16.598Z,4.53
2019-01-08T00:06:45.891Z,4.07
2019-01-08T00:09:15.232Z,3.97
2019-01-08T00:11:44.545Z,3.30
2019-01-08T00:14:13.901Z,2.93
2019-01-08T00:16:43.193Z,3.50
2019-01-08T00:19:12.482Z,3.77
2019-01-08T00:21:41.773Z,4.43
2019-01-08T00:24:11.089Z,5.30
2019-01-08T00:26:40.393Z,5.10
2019-01-08T00:29:09.702Z,4.73
2019-01-08T00:31:38.984Z,4.90
2019-01-08T00:34:08.311Z,5.10
2019-01-08T00:36:37.677Z,4.87
2019-01-08T00:39:07.729Z,5.63
2019-01-08T00:41:37.079Z,5.10
2019-01-08T00:44:06.411Z,4.77
2019-01-08T00:46:35.751Z,4.40
2019-01-08T00:49:05.117Z,4.47
2019-01-08T00:51:34.411Z,4.27
2019-01-08T00:54:03.710Z,4.20
2019-01-08T00:56:33.015Z,3.83
2019-01-08T00:59:02.309Z,4.27
2019-01-08T01:01:31.670Z,3.97
2019-01-08T01:04:01.017Z,4.17
2019-01-08T01:06:30.329Z,3.80
2019-01-08T01:08:59.700Z,3.13
2019-01-08T01:11:28.987Z,3.33
2019-01-08T01:13:58.267Z,3.73
2019-01-08T01:16:27.536Z,3.33
2019-01-08T01:18:56.832Z,3.27
2019-01-08T01:21:26.117Z,2.77
2019-01-08T01:23:55.381Z,3.00
2019-01-08T01:26:24.697Z,3.10
2019-01-08T01:28:59.903Z,2.50
2019-01-08T01:31:23.290Z,3.03
2019-01-08T01:33:52.602Z,3.40
2019-01-08T01:36:21.884Z,3.50
2019-01-08T01:38:51.161Z,3.10
2019-01-08T01:41:20.444Z,3.13
2019-01-08T01:43:49.797Z,3.83
2019-01-08T01:46:19.072Z,3.83
2019-01-08T01:48:48.393Z,4.00
2019-01-08T01:51:17.686Z,3.17
2019-01-08T01:53:46.955Z,3.53
2019-01-08T01:56:16.222Z,3.40
2019-01-08T01:58:45.615Z,2.90
2019-01-08T02:01:14.867Z,3.50
2019-01-08T02:03:44.182Z,3.57
2019-01-08T02:06:13.403Z,2.63
2019-01-08T02:08:42.723Z,3.27
2019-01-08T02:11:12.003Z,2.90
2019-01-08T02:13:41.403Z,3.67
2019-01-08T02:16:10.645Z,3.00
2019-01-08T02:18:39.965Z,3.07
2019-01-08T02:21:09.240Z,2.87
2019-01-08T02:23:38.503Z,3.60
2019-01-08T02:26:07.813Z,3.37
2019-01-08T02:28:37.095Z,3.50
2019-01-08T02:31:06.418Z,2.93
2019-01-08T02:33:35.678Z,3.10
2019-01-08T02:36:04.962Z,3.70
2019-01-08T02:38:34.743Z,3.23
2019-01-08T02:41:06.837Z,3.60
2019-01-08T02:43:36.142Z,3.03
2019-01-08T02:46:05.567Z,3.00
2019-01-08T02:48:34.673Z,2.80
2019-01-08T02:51:03.973Z,3.43
2019-01-08T02:53:33.359Z,4.13
2019-01-08T02:56:02.703Z,2.93
2019-01-08T02:58:32.025Z,3.23
2019-01-08T03:01:01.347Z,3.77
2019-01-08T03:03:30.695Z,3.77
2019-01-08T03:05:59.997Z,3.57
2019-01-08T03:08:29.281Z,3.33
2019-01-08T03:10:58.528Z,3.27
2019-01-08T03:13:27.831Z,3.73
2019-01-08T03:15:57.060Z,3.83
2019-01-08T03:18:26.295Z,3.80
2019-01-08T03:20:55.576Z,3.20
2019-01-08T03:23:24.881Z,3.83
2019-01-08T03:25:54.268Z,4.00
2019-01-08T03:28:23.493Z,3.87
2019-01-08T03:30:52.792Z,4.23
2019-01-08T03:33:22.067Z,4.60
2019-01-08T03:35:51.326Z,4.70
2019-01-08T03:38:20.583Z,4.43
2019-01-08T03:40:49.866Z,4.03
2019-01-08T03:43:19.116Z,3.70
2019-01-08T03:45:48.432Z,3.43
2019-01-08T03:48:17.695Z,3.83
2019-01-08T03:50:47.001Z,4.57
2019-01-08T03:53:16.274Z,4.10
2019-01-08T03:55:45.617Z,4.60
2019-01-08T03:58:14.887Z,3.63
2019-01-08T04:00:44.186Z,4.43
2019-01-08T04:03:13.451Z,3.33
2019-01-08T04:05:42.698Z,3.50
2019-01-08T04:08:12.046Z,2.93
2019-01-08T04:10:41.468Z,4.37
2019-01-08T04:13:10.720Z,3.83
2019-01-08T04:15:39.996Z,4.07
2019-01-08T04:18:09.264Z,3.50
2019-01-08T04:20:38.576Z,4.07
2019-01-08T04:23:07.829Z,2.80
2019-01-08T04:25:37.124Z,3.30
2019-01-08T04:28:06.379Z,2.63
2019-01-08T04:30:35.654Z,2.27
2019-01-08T04:33:05.040Z,2.73
2019-01-08T04:35:34.298Z,1.87
2019-01-08T04:38:03.594Z,2.97
2019-01-08T04:40:32.832Z,2.53
2019-01-08T04:43:02.094Z,2.23
2019-01-08T04:45:31.379Z,2.17
2019-01-08T04:48:00.715Z,2.23
2019-01-08T04:50:30.000Z,2.80
2019-01-08T04:52:59.337Z,2.40
2019-01-08T04:55:28.632Z,2.93
2019-01-08T04:57:57.940Z,3.13
2019-01-08T05:00:27.182Z,3.23
2019-01-08T05:02:56.538Z,2.70
2019-01-08T05:05:25.788Z,2.73
2019-01-08T05:07:55.066Z,2.67
2019-01-08T05:10:24.346Z,3.30
2019-01-08T05:12:53.629Z,3.37
2019-01-08T05:15:22.967Z,3.13
2019-01-08T05:17:52.236Z,3.33
2019-01-08T05:20:21.513Z,2.90
2019-01-08T05:22:52.303Z,3.60
2019-01-08T05:25:21.487Z,4.33
2019-01-08T05:27:50.806Z,3.53
2019-01-08T05:30:20.117Z,3.30
2019-01-08T05:32:49.418Z,2.87
2019-01-08T05:35:18.746Z,3.33
2019-01-08T05:37:48.059Z,3.60
2019-01-08T05:40:17.396Z,3.27
2019-01-08T05:42:46.706Z,3.80
2019-01-08T05:45:15.984Z,2.37
2019-01-08T05:47:45.325Z,5.13
2019-01-08T05:50:14.625Z,3.43
2019-01-08T05:52:43.891Z,4.00
2019-01-08T05:55:13.128Z,2.60
2019-01-08T05:57:42.499Z,2.83
2019-01-08T06:00:16.335Z,3.50
2019-01-08T06:02:41.077Z,4.47
2019-01-08T06:05:10.328Z,3.30
2019-01-08T06:07:39.627Z,3.03
2019-01-08T06:10:09.590Z,3.00
2019-01-08T06:12:38.851Z,3.30
2019-01-08T06:15:08.096Z,2.70
2019-01-08T06:17:37.431Z,2.83
2019-01-08T06:20:06.924Z,3.37
2019-01-08T06:22:36.183Z,2.60
2019-01-08T06:25:05.641Z,3.33
2019-01-08T06:27:34.924Z,3.27
2019-01-08T06:30:04.532Z,3.37
2019-01-08T06:32:33.913Z,2.90
2019-01-08T06:35:03.248Z,2.30
2019-01-08T06:37:32.491Z,2.50
2019-01-08T06:40:01.836Z,2.47
2019-01-08T06:42:31.105Z,3.60
2019-01-08T06:45:00.397Z,2.27
2019-01-08T06:47:30.304Z,2.80
2019-01-08T06:49:59.083Z,3.03
2019-01-08T06:52:28.424Z,2.00
2019-01-08T06:54:57.745Z,2.20
2019-01-08T06:57:27.006Z,2.20
2019-01-08T06:59:56.359Z,2.53
2019-01-08T07:02:25.649Z,3.23
2019-01-08T07:04:54.913Z,3.10
2019-01-08T07:07:24.196Z,2.93
2019-01-08T07:09:53.529Z,3.10
2019-01-08T07:12:22.769Z,2.77
2019-01-08T07:14:52.040Z,2.00
2019-01-08T07:17:21.308Z,2.67
2019-01-08T07:19:50.765Z,2.93
2019-01-08T07:22:20.141Z,3.73
2019-01-08T07:24:49.439Z,3.37
2019-01-08T07:27:18.694Z,3.33
2019-01-08T07:29:47.985Z,3.10
2019-01-08T07:32:17.268Z,3.47
2019-01-08T07:34:46.622Z,3.03
2019-01-08T07:37:16.009Z,3.80
2019-01-08T07:39:45.352Z,3.43
2019-01-08T07:42:14.783Z,3.10
2019-01-08T07:44:44.039Z,3.43
2019-01-08T07:47:13.321Z,3.27
2019-01-08T07:49:42.581Z,2.93
2019-01-08T07:52:11.967Z,2.33
2019-01-08T07:54:41.265Z,3.20
2019-01-08T07:57:10.559Z,2.97
2019-01-08T07:59:39.886Z,2.57
2019-01-08T08:02:09.255Z,3.27
2019-01-08T08:04:38.574Z,3.30
2019-01-08T08:07:07.884Z,2.77
2019-01-08T08:09:37.197Z,2.93
2019-01-08T08:12:06.475Z,2.83
2019-01-08T08:14:35.793Z,2.53
2019-01-08T08:17:05.031Z,3.00
2019-01-08T08:19:34.265Z,2.43
2019-01-08T08:22:03.598Z,2.53
2019-01-08T08:24:32.875Z,2.93
2019-01-08T08:27:02.199Z,3.20
2019-01-08T08:29:31.589Z,2.80
2019-01-08T08:32:00.903Z,2.63
2019-01-08T08:34:30.287Z,3.00
2019-01-08T08:36:59.548Z,2.80
2019-01-08T08:39:28.799Z,3.07
2019-01-08T08:41:58.074Z,3.93
2019-01-08T08:44:27.383Z,3.20
2019-01-08T08:46:56.822Z,3.57
2019-01-08T08:49:26.101Z,2.77
2019-01-08T08:51:55.376Z,3.07
2019-01-08T08:54:24.648Z,3.27
2019-01-08T08:56:54.015Z,3.23
2019-01-08T08:59:23.261Z,2.83
2019-01-08T09:01:52.603Z,3.00
2019-01-08T09:04:21.921Z,3.97
2019-01-08T09:06:51.288Z,2.87
2019-01-08T09:09:20.631Z,3.20
2019-01-08T09:11:49.904Z,3.20
2019-01-08T09:14:19.194Z,3.30
2019-01-08T09:16:48.455Z,3.70
2019-01-08T09:19:17.871Z,3.20
2019-01-08T09:21:47.165Z,3.53
2019-01-08T09:24:16.479Z,3.50
2019-01-08T09:26:45.780Z,4.40
2019-01-08T09:29:15.071Z,3.20
2019-01-08T09:31:44.365Z,3.63
2019-01-08T09:34:13.705Z,2.63
2019-01-08T09:36:43.022Z,3.00
2019-01-08T09:39:12.325Z,2.73
2019-01-08T09:41:41.627Z,3.23
2019-01-08T09:44:10.885Z,2.57
2019-01-08T09:46:40.156Z,2.80
2019-01-08T09:49:09.541Z,2.90
2019-01-08T09:51:38.796Z,2.30
2019-01-08T09:54:08.100Z,3.07
2019-01-08T09:56:37.425Z,3.30
2019-01-08T09:59:06.730Z,2.63
2019-01-08T10:01:36.045Z,2.20
2019-01-08T10:04:05.286Z,2.00
2019-01-08T10:06:34.584Z,2.50
2019-01-08T10:09:04.424Z,1.77
2019-01-08T10:11:33.793Z,1.80
2019-01-08T10:14:03.158Z,1.67
2019-01-08T10:16:32.451Z,2.00
2019-01-08T10:19:01.705Z,2.00
2019-01-08T10:21:31.017Z,2.80
2019-01-08T10:24:02.030Z,1.80
2019-01-08T10:26:29.676Z,1.80
2019-01-08T10:28:59.052Z,2.13
2019-01-08T10:31:32.581Z,1.63
2019-01-08T10:33:57.695Z,1.80
2019-01-08T10:36:26.901Z,1.70
2019-01-08T10:38:56.188Z,2.10
2019-01-08T10:41:25.431Z,1.37
2019-01-08T10:43:54.719Z,1.57
2019-01-08T10:46:23.979Z,1.60
2019-01-08T10:48:53.249Z,1.33
2019-01-08T10:51:22.559Z,0.80
2019-01-08T10:53:51.888Z,0.90
2019-01-08T10:56:21.206Z,1.00
2019-01-08T10:58:50.483Z,1.03
2019-01-08T11:01:20.186Z,1.10
2019-01-08T11:03:49.625Z,1.60
2019-01-08T11:06:18.969Z,1.23
2019-01-08T11:08:48.321Z,1.67
2019-01-08T11:11:17.584Z,1.17
2019-01-08T11:13:46.901Z,2.13
2019-01-08T11:16:16.276Z,3.83
2019-01-08T11:18:45.638Z,3.10
2019-01-08T11:21:14.933Z,2.70
2019-01-08T11:23:44.703Z,3.63
2019-01-08T11:26:13.952Z,4.40
2019-01-08T11:28:43.337Z,4.03
2019-01-08T11:31:12.607Z,4.33
2019-01-08T11:33:41.878Z,4.17
2019-01-08T11:36:11.155Z,4.30
2019-01-08T11:38:40.453Z,4.80
2019-01-08T11:41:09.699Z,5.83
2019-01-08T11:43:38.965Z,4.23
2019-01-08T11:46:08.297Z,5.70
2019-01-08T11:48:37.569Z,2.23
2019-01-08T11:52:10.972Z,2.77
2019-01-08T12:10:59.797Z,3.00
2019-01-08T12:16:04.119Z,0.00
2019-01-08T12:19:54.201Z,0.00
2019-01-08T12:34:03.387Z,0.00
2019-01-08T12:36:43.794Z,4.13
2019-01-08T12:40:46.492Z,3.30
2019-01-08T13:29:44.661Z,3.77
2019-01-08T14:43:20.544Z,6.43
2019-01-08T14:51:14.965Z,3.23
2019-01-08T15:06:57.785Z,4.40
2019-01-08T15:09:29.533Z,4.03
2019-01-08T15:23:18.687Z,2.43
2019-01-08T15:55:46.662Z,3.97
2019-01-08T16:09:03.715Z,4.27
2019-01-08T16:12:58.886Z,3.83
2019-01-08T16:31:56.255Z,3.47
2019-01-08T16:35:16.348Z,4.13
2019-01-08T16:47:06.110Z,2.63
2019-01-08T16:49:35.416Z,2.80
2019-01-08T16:52:04.707Z,2.97
2019-01-08T16:54:34.046Z,3.10
2019-01-08T16:57:03.305Z,3.27
2019-01-08T16:59:32.626Z,4.07
2019-01-08T17:02:01.918Z,2.57
2019-01-08T17:04:31.235Z,2.40
2019-01-08T17:07:00.542Z,2.97
2019-01-08T17:09:29.926Z,2.43
2019-01-08T17:11:59.244Z,2.30
2019-01-08T17:14:28.563Z,3.30
2019-01-08T17:16:57.842Z,2.27
2019-01-08T17:19:27.105Z,2.67
2019-01-08T17:21:56.585Z,2.30
2019-01-08T17:24:25.878Z,3.07
2019-01-08T17:26:55.147Z,2.80
2019-01-08T17:29:24.479Z,2.70
2019-01-08T17:31:53.751Z,2.90
2019-01-08T17:34:23.082Z,3.17
2019-01-08T17:36:52.372Z,2.67
2019-01-08T17:39:21.737Z,2.50
2019-01-08T17:41:51.029Z,2.47
2019-01-08T17:44:20.529Z,2.90
2019-01-08T17:46:50.027Z,1.97
2019-01-08T17:49:19.365Z,2.80
2019-01-08T17:51:48.672Z,1.93
2019-01-08T17:54:18.103Z,2.07
2019-01-08T17:56:47.413Z,2.50
2019-01-08T17:59:18.893Z,2.10
2019-01-08T18:01:56.908Z,1.60
2019-01-08T18:04:26.153Z,1.80
2019-01-08T18:06:55.589Z,2.17
2019-01-08T18:09:24.944Z,1.23
2019-01-08T18:11:54.389Z,1.40
2019-01-08T18:14:23.697Z,2.30
2019-01-08T18:16:53.359Z,1.30
2019-01-08T18:19:22.588Z,1.40
2019-01-08T18:21:51.878Z,2.20
2019-01-08T18:24:21.178Z,1.07
2019-01-08T18:26:50.862Z,1.30
2019-01-08T18:29:20.237Z,1.30
2019-01-08T18:31:49.507Z,1.47
2019-01-08T18:34:18.995Z,1.53
2019-01-08T18:36:48.249Z,1.13
2019-01-08T18:39:17.762Z,1.30
2019-01-08T18:41:48.425Z,1.17
2019-01-08T18:44:17.838Z,1.17
2019-01-08T18:46:47.111Z,1.47
2019-01-08T18:49:19.094Z,1.33
2019-01-08T18:51:48.695Z,1.50
2019-01-08T18:54:18.345Z,1.47
2019-01-08T18:56:47.778Z,2.27
2019-01-08T18:59:17.062Z,1.57
2019-01-08T19:01:46.315Z,1.77
2019-01-08T19:04:15.723Z,1.77
2019-01-08T19:06:45.037Z,1.10
2019-01-08T19:09:26.052Z,2.20
2019-01-08T19:11:55.752Z,1.57
2019-01-08T19:14:28.234Z,2.20
2019-01-08T19:16:57.537Z,1.63
2019-01-08T19:19:26.905Z,1.40
2019-01-08T19:21:56.144Z,1.43
2019-01-08T19:24:25.428Z,2.37
2019-01-08T19:26:54.703Z,1.70
2019-01-08T19:29:24.223Z,2.03
2019-01-08T19:31:53.512Z,1.60
2019-01-08T19:34:22.809Z,2.63
2019-01-08T19:36:52.234Z,2.77
2019-01-08T19:39:21.740Z,2.10
2019-01-08T19:41:51.220Z,1.43
2019-01-08T19:44:20.719Z,2.00
2019-01-08T19:46:50.246Z,2.37
2019-01-08T19:49:19.683Z,2.53
2019-01-08T19:51:49.034Z,1.87
2019-01-08T19:54:18.355Z,1.77
2019-01-08T19:56:47.633Z,1.90
2019-01-08T19:59:17.020Z,2.10
2019-01-08T20:01:46.525Z,2.07
2019-01-08T20:04:17.985Z,2.37
2019-01-08T20:06:45.517Z,2.00
2019-01-08T20:09:14.829Z,1.47
2019-01-08T20:11:44.377Z,1.50
2019-01-08T20:14:13.663Z,1.70
2019-01-08T20:16:43.011Z,1.90
2019-01-08T20:19:12.627Z,2.03
2019-01-08T20:21:42.336Z,1.57
2019-01-08T20:24:15.833Z,1.87
2019-01-08T20:26:45.397Z,1.17
2019-01-08T20:29:23.123Z,1.60
2019-01-08T20:31:49.901Z,1.80
2019-01-08T20:34:26.601Z,1.80
2019-01-08T20:36:48.729Z,1.70
2019-01-08T20:39:18.040Z,2.00
2019-01-08T20:41:47.379Z,1.60
2019-01-08T20:44:16.669Z,1.83
2019-01-08T20:46:45.947Z,1.60
2019-01-08T20:49:15.275Z,1.00
2019-01-08T20:51:44.601Z,1.60
2019-01-08T20:54:13.904Z,2.07
2019-01-08T20:56:43.248Z,1.53
2019-01-08T20:59:12.556Z,1.30
2019-01-08T21:01:41.828Z,2.17
2019-01-08T21:04:11.159Z,1.93
2019-01-08T21:06:40.469Z,1.73
2019-01-08T21:09:09.767Z,1.33
2019-01-08T21:11:39.147Z,1.57
2019-01-08T21:14:08.495Z,1.90
2019-01-08T21:16:37.837Z,1.63
2019-01-08T21:19:07.119Z,1.40
2019-01-08T21:21:39.797Z,1.97
2019-01-08T21:24:09.109Z,1.07
2019-01-08T21:26:38.399Z,1.73
2019-01-08T21:29:07.697Z,1.97
2019-01-08T21:31:37.027Z,2.00
2019-01-08T21:34:06.310Z,2.23
2019-01-08T21:36:35.631Z,2.13
2019-01-08T21:39:06.308Z,1.57
2019-01-08T21:41:38.857Z,2.13
2019-01-08T21:44:05.015Z,2.10
2019-01-08T21:46:34.365Z,1.63
2019-01-08T21:49:03.737Z,1.37
2019-01-08T21:51:35.657Z,2.13
2019-01-08T21:54:05.238Z,2.00
2019-01-08T21:56:34.542Z,1.93
2019-01-08T21:59:03.869Z,2.00
2019-01-08T22:01:33.108Z,1.73
2019-01-08T22:04:02.528Z,2.23
2019-01-08T22:06:31.945Z,2.00
2019-01-08T22:09:01.300Z,2.10
2019-01-08T22:11:30.682Z,1.90
2019-01-08T22:13:59.995Z,2.10
2019-01-08T22:16:29.277Z,2.40
2019-01-08T22:18:58.583Z,2.27
2019-01-08T22:21:27.845Z,2.33
2019-01-08T22:23:57.154Z,3.00
2019-01-08T22:26:26.431Z,1.97
2019-01-08T22:28:55.738Z,2.73
2019-01-08T22:31:24.999Z,2.10
2019-01-08T22:33:54.323Z,2.13
2019-01-08T22:36:23.622Z,1.80
2019-01-08T22:38:52.899Z,1.57
2019-01-08T22:41:22.231Z,1.97
2019-01-08T22:43:51.541Z,2.20
2019-01-08T22:46:20.921Z,1.53
2019-01-08T22:48:50.307Z,2.27
2019-01-08T22:51:19.665Z,2.67
2019-01-08T22:53:48.995Z,2.37
2019-01-08T22:56:18.293Z,2.07
2019-01-08T22:58:47.535Z,3.20
2019-01-08T23:01:20.633Z,2.10
2019-01-08T23:03:49.937Z,2.40
2019-01-08T23:06:19.262Z,1.20
2019-01-08T23:08:48.569Z,1.90
2019-01-08T23:11:17.830Z,2.00
2019-01-08T23:13:47.196Z,1.60
2019-01-08T23:16:16.480Z,2.00
2019-01-08T23:18:45.809Z,1.90
2019-01-08T23:21:15.148Z,1.67
2019-01-08T23:23:44.481Z,1.83
2019-01-08T23:26:13.727Z,1.80
2019-01-08T23:28:43.146Z,2.00
2019-01-08T23:31:12.440Z,1.37
2019-01-08T23:33:41.811Z,1.50
2019-01-08T23:36:11.097Z,2.13
2019-01-08T23:38:40.391Z,2.17
2019-01-08T23:41:09.668Z,1.67
2019-01-08T23:43:38.970Z,2.13
2019-01-08T23:46:08.237Z,1.57
2019-01-08T23:48:37.548Z,1.93
2019-01-08T23:51:06.839Z,1.97
2019-01-08T23:53:39.021Z,1.20
2019-01-08T23:56:09.123Z,1.97
2019-01-08T23:58:38.424Z,1.93
